sensor_id;sensor_type;location;lat;lon;timestamp;temperature;humidity
10010;DHT22;5044;48.652;9.250;2023-03-03T00:00:49;2.40;96.60
10010;DHT22;5044;48.652;9.250;2023-03-03T00:03:19;2.00;96.20
10010;DHT22;5044;48.652;9.250;2023-03-03T00:05:48;2.00;97.70
10010;DHT22;5044;48.652;9.250;2023-03-03T00:08:15;2.00;96.30
10010;DHT22;5044;48.652;9.250;2023-03-03T00:10:42;2.00;96.90
10010;DHT22;5044;48.652;9.250;2023-03-03T00:13:14;1.90;97.90
10010;DHT22;5044;48.652;9.250;2023-03-03T00:15:43;2.00;98.60
10010;DHT22;5044;48.652;9.250;2023-03-03T00:18:20;1.90;97.00
10010;DHT22;5044;48.652;9.250;2023-03-03T00:20:52;1.90;96.20
10010;DHT22;5044;48.652;9.250;2023-03-03T00:23:25;1.30;99.10
10010;DHT22;5044;48.652;9.250;2023-03-03T00:25:55;1.90;96.90
10010;DHT22;5044;48.652;9.250;2023-03-03T00:28:24;1.90;97.00
10010;DHT22;5044;48.652;9.250;2023-03-03T00:30:54;1.90;97.50
10010;DHT22;5044;48.652;9.250;2023-03-03T00:33:26;1.80;99.70
10010;DHT22;5044;48.652;9.250;2023-03-03T00:35:58;1.80;98.00
10010;DHT22;5044;48.652;9.250;2023-03-03T00:38:26;1.80;99.00
10010;DHT22;5044;48.652;9.250;2023-03-03T00:40:53;1.70;98.10
10010;DHT22;5044;48.652;9.250;2023-03-03T00:43:22;1.70;97.00
10010;DHT22;5044;48.652;9.250;2023-03-03T00:45:50;1.70;98.20
10010;DHT22;5044;48.652;9.250;2023-03-03T00:48:26;1.60;96.50
10010;DHT22;5044;48.652;9.250;2023-03-03T00:50:56;1.60;96.80
10010;DHT22;5044;48.652;9.250;2023-03-03T00:53:25;1.90;97.40
10010;DHT22;5044;48.652;9.250;2023-03-03T00:55:54;1.50;96.70
10010;DHT22;5044;48.652;9.250;2023-03-03T00:58:28;1.50;96.70
10010;DHT22;5044;48.652;9.250;2023-03-03T01:00:57;1.50;97.90
10010;DHT22;5044;48.652;9.250;2023-03-03T01:03:28;1.40;98.90
10010;DHT22;5044;48.652;9.250;2023-03-03T01:05:56;1.40;99.90
10010;DHT22;5044;48.652;9.250;2023-03-03T01:08:24;1.30;99.90
10010;DHT22;5044;48.652;9.250;2023-03-03T01:10:53;1.20;99.20
10010;DHT22;5044;48.652;9.250;2023-03-03T01:13:23;1.30;99.60
10010;DHT22;5044;48.652;9.250;2023-03-03T01:15:52;1.20;99.90
10010;DHT22;5044;48.652;9.250;2023-03-03T01:18:24;1.20;99.90
10010;DHT22;5044;48.652;9.250;2023-03-03T01:20:51;1.10;99.90
10010;DHT22;5044;48.652;9.250;2023-03-03T01:23:21;1.00;99.20
10010;DHT22;5044;48.652;9.250;2023-03-03T01:25:51;1.00;99.90
10010;DHT22;5044;48.652;9.250;2023-03-03T01:28:18;0.90;99.90
10010;DHT22;5044;48.652;9.250;2023-03-03T01:30:46;0.90;99.90
10010;DHT22;5044;48.652;9.250;2023-03-03T01:33:13;0.80;99.90
10010;DHT22;5044;48.652;9.250;2023-03-03T01:35:43;1.00;99.90
10010;DHT22;5044;48.652;9.250;2023-03-03T01:38:10;0.70;99.90
10010;DHT22;5044;48.652;9.250;2023-03-03T01:40:39;0.70;99.90
10010;DHT22;5044;48.652;9.250;2023-03-03T01:43:06;0.60;99.90
10010;DHT22;5044;48.652;9.250;2023-03-03T01:48:29;0.50;99.90
10010;DHT22;5044;48.652;9.250;2023-03-03T01:51:00;1.10;99.90
10010;DHT22;5044;48.652;9.250;2023-03-03T01:53:33;0.40;99.90
10010;DHT22;5044;48.652;9.250;2023-03-03T01:56:05;0.30;99.90
10010;DHT22;5044;48.652;9.250;2023-03-03T01:58:35;0.30;99.90
10010;DHT22;5044;48.652;9.250;2023-03-03T02:01:08;0.90;99.90
10010;DHT22;5044;48.652;9.250;2023-03-03T02:03:41;0.20;99.90
10010;DHT22;5044;48.652;9.250;2023-03-03T02:06:20;0.10;99.90
10010;DHT22;5044;48.652;9.250;2023-03-03T02:08:52;0.10;99.90
10010;DHT22;5044;48.652;9.250;2023-03-03T02:11:28;0.10;99.90
10010;DHT22;5044;48.652;9.250;2023-03-03T02:14:10;0.00;99.90
10010;DHT22;5044;48.652;9.250;2023-03-03T02:16:38;-0.10;99.90
10010;DHT22;5044;48.652;9.250;2023-03-03T02:19:27;-0.10;99.90
10010;DHT22;5044;48.652;9.250;2023-03-03T02:21:59;0.50;99.90
10010;DHT22;5044;48.652;9.250;2023-03-03T02:24:46;-0.20;99.90
10010;DHT22;5044;48.652;9.250;2023-03-03T02:27:20;-0.30;99.90
10010;DHT22;5044;48.652;9.250;2023-03-03T02:29:49;-0.30;99.90
10010;DHT22;5044;48.652;9.250;2023-03-03T02:32:24;-0.60;99.90
10010;DHT22;5044;48.652;9.250;2023-03-03T02:35:00;0.50;99.90
10010;DHT22;5044;48.652;9.250;2023-03-03T02:37:33;-0.40;99.90
10010;DHT22;5044;48.652;9.250;2023-03-03T02:40:07;-0.40;99.90
10010;DHT22;5044;48.652;9.250;2023-03-03T02:42:52;-0.50;99.90
10010;DHT22;5044;48.652;9.250;2023-03-03T02:45:45;-0.50;99.90
10010;DHT22;5044;48.652;9.250;2023-03-03T02:48:33;-0.50;99.90
10010;DHT22;5044;48.652;9.250;2023-03-03T02:51:10;-0.60;99.90
10010;DHT22;5044;48.652;9.250;2023-03-03T02:53:41;-0.50;99.90
10010;DHT22;5044;48.652;9.250;2023-03-03T02:56:13;-0.70;99.90
10010;DHT22;5044;48.652;9.250;2023-03-03T02:58:58;-0.60;99.90
10010;DHT22;5044;48.652;9.250;2023-03-03T03:01:25;-0.40;99.90
10010;DHT22;5044;48.652;9.250;2023-03-03T03:04:14;-1.20;99.90
10010;DHT22;5044;48.652;9.250;2023-03-03T03:07:04;-0.60;99.90
10010;DHT22;5044;48.652;9.250;2023-03-03T03:09:51;-0.50;99.90
10010;DHT22;5044;48.652;9.250;2023-03-03T03:12:21;-0.40;99.90
10010;DHT22;5044;48.652;9.250;2023-03-03T03:15:08;-0.70;99.90
10010;DHT22;5044;48.652;9.250;2023-03-03T03:17:42;-0.20;99.90
10010;DHT22;5044;48.652;9.250;2023-03-03T03:20:15;-0.10;99.90
10010;DHT22;5044;48.652;9.250;2023-03-03T03:22:58;-0.10;99.90
10010;DHT22;5044;48.652;9.250;2023-03-03T03:25:25;0.00;99.90
10010;DHT22;5044;48.652;9.250;2023-03-03T03:27:55;0.00;99.90
10010;DHT22;5044;48.652;9.250;2023-03-03T03:30:25;0.10;99.90
10010;DHT22;5044;48.652;9.250;2023-03-03T03:32:53;0.70;99.90
10010;DHT22;5044;48.652;9.250;2023-03-03T03:35:21;0.70;99.90
10010;DHT22;5044;48.652;9.250;2023-03-03T03:37:49;0.20;99.90
10010;DHT22;5044;48.652;9.250;2023-03-03T03:40:19;0.90;99.90
10010;DHT22;5044;48.652;9.250;2023-03-03T03:42:49;0.20;99.90
10010;DHT22;5044;48.652;9.250;2023-03-03T03:45:16;0.40;99.90
10010;DHT22;5044;48.652;9.250;2023-03-03T03:47:48;0.00;99.90
10010;DHT22;5044;48.652;9.250;2023-03-03T03:50:16;0.70;99.90
10010;DHT22;5044;48.652;9.250;2023-03-03T03:52:46;0.40;99.90
10010;DHT22;5044;48.652;9.250;2023-03-03T03:55:13;0.70;99.90
10010;DHT22;5044;48.652;9.250;2023-03-03T03:57:40;0.90;99.90
10010;DHT22;5044;48.652;9.250;2023-03-03T04:00:10;0.40;99.90
10010;DHT22;5044;48.652;9.250;2023-03-03T04:02:37;0.50;99.90
10010;DHT22;5044;48.652;9.250;2023-03-03T04:05:07;0.50;99.90
10010;DHT22;5044;48.652;9.250;2023-03-03T04:07:42;0.50;99.90
10010;DHT22;5044;48.652;9.250;2023-03-03T04:10:10;0.50;99.90
10010;DHT22;5044;48.652;9.250;2023-03-03T04:12:42;0.50;99.90
10010;DHT22;5044;48.652;9.250;2023-03-03T04:15:17;0.50;99.90
10010;DHT22;5044;48.652;9.250;2023-03-03T04:17:48;0.50;99.90
10010;DHT22;5044;48.652;9.250;2023-03-03T04:20:28;0.00;99.90
10010;DHT22;5044;48.652;9.250;2023-03-03T04:23:00;1.10;99.90
10010;DHT22;5044;48.652;9.250;2023-03-03T04:25:28;0.50;99.90
10010;DHT22;5044;48.652;9.250;2023-03-03T04:27:57;1.40;99.90
10010;DHT22;5044;48.652;9.250;2023-03-03T04:30:33;1.10;99.90
10010;DHT22;5044;48.652;9.250;2023-03-03T04:33:02;1.20;99.90
10010;DHT22;5044;48.652;9.250;2023-03-03T04:35:38;0.80;99.90
10010;DHT22;5044;48.652;9.250;2023-03-03T04:38:13;0.80;99.90
10010;DHT22;5044;48.652;9.250;2023-03-03T04:40:43;0.80;99.90
10010;DHT22;5044;48.652;9.250;2023-03-03T04:43:11;0.80;99.90
10010;DHT22;5044;48.652;9.250;2023-03-03T04:45:39;0.90;99.90
10010;DHT22;5044;48.652;9.250;2023-03-03T04:48:07;0.50;99.90
10010;DHT22;5044;48.652;9.250;2023-03-03T04:50:43;0.90;99.90
10010;DHT22;5044;48.652;9.250;2023-03-03T04:53:11;0.90;99.90
10010;DHT22;5044;48.652;9.250;2023-03-03T04:55:39;1.00;99.90
10010;DHT22;5044;48.652;9.250;2023-03-03T04:58:11;0.90;99.90
10010;DHT22;5044;48.652;9.250;2023-03-03T05:00:38;1.00;99.90
10010;DHT22;5044;48.652;9.250;2023-03-03T05:03:05;1.00;99.90
10010;DHT22;5044;48.652;9.250;2023-03-03T05:05:38;1.60;99.90
10010;DHT22;5044;48.652;9.250;2023-03-03T05:08:07;0.90;99.90
10010;DHT22;5044;48.652;9.250;2023-03-03T05:10:34;1.20;99.90
10010;DHT22;5044;48.652;9.250;2023-03-03T05:16:13;1.10;99.90
10010;DHT22;5044;48.652;9.250;2023-03-03T05:18:40;1.10;99.90
10010;DHT22;5044;48.652;9.250;2023-03-03T05:21:07;1.10;99.90
10010;DHT22;5044;48.652;9.250;2023-03-03T05:23:37;1.10;99.90
10010;DHT22;5044;48.652;9.250;2023-03-03T05:26:04;1.50;99.90
10010;DHT22;5044;48.652;9.250;2023-03-03T05:28:31;1.30;99.90
10010;DHT22;5044;48.652;9.250;2023-03-03T05:30:59;1.20;99.90
10010;DHT22;5044;48.652;9.250;2023-03-03T05:33:26;1.30;99.90
10010;DHT22;5044;48.652;9.250;2023-03-03T05:35:53;1.10;99.90
10010;DHT22;5044;48.652;9.250;2023-03-03T05:38:20;1.00;99.90
10010;DHT22;5044;48.652;9.250;2023-03-03T05:40:49;0.80;99.90
10010;DHT22;5044;48.652;9.250;2023-03-03T05:43:19;1.80;99.90
10010;DHT22;5044;48.652;9.250;2023-03-03T05:45:46;1.80;99.90
10010;DHT22;5044;48.652;9.250;2023-03-03T05:48:13;1.20;99.90
10010;DHT22;5044;48.652;9.250;2023-03-03T05:50:40;1.80;99.90
10010;DHT22;5044;48.652;9.250;2023-03-03T05:53:07;1.40;99.90
10010;DHT22;5044;48.652;9.250;2023-03-03T05:55:34;1.60;99.90
10010;DHT22;5044;48.652;9.250;2023-03-03T05:58:02;1.60;99.90
10010;DHT22;5044;48.652;9.250;2023-03-03T06:00:29;1.10;99.90
10010;DHT22;5044;48.652;9.250;2023-03-03T06:02:56;1.80;99.90
10010;DHT22;5044;48.652;9.250;2023-03-03T06:05:23;0.90;99.90
10010;DHT22;5044;48.652;9.250;2023-03-03T06:07:50;1.00;99.90
10010;DHT22;5044;48.652;9.250;2023-03-03T06:10:17;1.90;99.90
10010;DHT22;5044;48.652;9.250;2023-03-03T06:12:44;1.90;99.90
10010;DHT22;5044;48.652;9.250;2023-03-03T06:15:13;0.90;99.90
10010;DHT22;5044;48.652;9.250;2023-03-03T06:17:43;1.30;99.90
10010;DHT22;5044;48.652;9.250;2023-03-03T06:20:10;1.00;99.90
10010;DHT22;5044;48.652;9.250;2023-03-03T06:22:37;0.70;99.90
10010;DHT22;5044;48.652;9.250;2023-03-03T06:25:05;1.10;99.90
10010;DHT22;5044;48.652;9.250;2023-03-03T06:27:32;0.70;99.90
10010;DHT22;5044;48.652;9.250;2023-03-03T06:30:02;1.90;99.90
10010;DHT22;5044;48.652;9.250;2023-03-03T06:32:30;1.30;99.90
10010;DHT22;5044;48.652;9.250;2023-03-03T06:34:57;1.40;99.90
10010;DHT22;5044;48.652;9.250;2023-03-03T06:37:24;1.20;99.90
10010;DHT22;5044;48.652;9.250;2023-03-03T06:39:51;1.90;99.90
10010;DHT22;5044;48.652;9.250;2023-03-03T06:42:18;1.40;99.90
10010;DHT22;5044;48.652;9.250;2023-03-03T06:44:46;1.80;99.90
10010;DHT22;5044;48.652;9.250;2023-03-03T06:47:13;1.10;99.90
10010;DHT22;5044;48.652;9.250;2023-03-03T06:49:41;1.30;99.90
10010;DHT22;5044;48.652;9.250;2023-03-03T06:52:11;1.40;99.90
10010;DHT22;5044;48.652;9.250;2023-03-03T06:54:39;1.40;99.90
10010;DHT22;5044;48.652;9.250;2023-03-03T06:57:15;1.40;99.90
10010;DHT22;5044;48.652;9.250;2023-03-03T06:59:42;1.40;99.90
10010;DHT22;5044;48.652;9.250;2023-03-03T07:02:14;1.50;99.90
10010;DHT22;5044;48.652;9.250;2023-03-03T07:04:43;1.50;99.90
10010;DHT22;5044;48.652;9.250;2023-03-03T07:07:16;1.50;99.90
10010;DHT22;5044;48.652;9.250;2023-03-03T07:09:44;1.60;99.90
10010;DHT22;5044;48.652;9.250;2023-03-03T07:12:14;1.60;99.90
10010;DHT22;5044;48.652;9.250;2023-03-03T07:14:43;1.70;99.90
10010;DHT22;5044;48.652;9.250;2023-03-03T07:17:14;1.70;99.90
10010;DHT22;5044;48.652;9.250;2023-03-03T07:19:43;1.80;99.90
10010;DHT22;5044;48.652;9.250;2023-03-03T07:22:15;2.10;99.90
10010;DHT22;5044;48.652;9.250;2023-03-03T07:24:42;1.80;99.90
10010;DHT22;5044;48.652;9.250;2023-03-03T07:27:13;1.90;99.90
10010;DHT22;5044;48.652;9.250;2023-03-03T07:29:40;1.90;99.90
10010;DHT22;5044;48.652;9.250;2023-03-03T07:35:16;2.00;99.90
10010;DHT22;5044;48.652;9.250;2023-03-03T07:37:48;2.10;99.90
10010;DHT22;5044;48.652;9.250;2023-03-03T07:40:30;2.10;99.90
10010;DHT22;5044;48.652;9.250;2023-03-03T07:43:11;2.90;99.90
10010;DHT22;5044;48.652;9.250;2023-03-03T07:45:42;2.10;99.90
10010;DHT22;5044;48.652;9.250;2023-03-03T07:48:16;2.20;99.90
10010;DHT22;5044;48.652;9.250;2023-03-03T07:50:46;2.60;99.90
10010;DHT22;5044;48.652;9.250;2023-03-03T07:53:26;2.40;99.90
10010;DHT22;5044;48.652;9.250;2023-03-03T07:55:56;2.50;99.90
10010;DHT22;5044;48.652;9.250;2023-03-03T07:58:26;2.80;99.90
10010;DHT22;5044;48.652;9.250;2023-03-03T08:01:28;2.90;99.90
10010;DHT22;5044;48.652;9.250;2023-03-03T08:07:01;3.00;99.90
10010;DHT22;5044;48.652;9.250;2023-03-03T08:09:47;3.00;99.90
10010;DHT22;5044;48.652;9.250;2023-03-03T08:12:39;3.10;99.90
10010;DHT22;5044;48.652;9.250;2023-03-03T08:15:35;3.30;99.90
10010;DHT22;5044;48.652;9.250;2023-03-03T08:18:15;3.50;99.90
10010;DHT22;5044;48.652;9.250;2023-03-03T08:20:47;3.50;99.90
10010;DHT22;5044;48.652;9.250;2023-03-03T08:23:24;3.50;99.90
10010;DHT22;5044;48.652;9.250;2023-03-03T08:25:51;3.50;99.90
10010;DHT22;5044;48.652;9.250;2023-03-03T08:28:19;3.70;99.90
10010;DHT22;5044;48.652;9.250;2023-03-03T08:30:47;3.70;99.90
10010;DHT22;5044;48.652;9.250;2023-03-03T08:33:15;3.70;99.90
10010;DHT22;5044;48.652;9.250;2023-03-03T08:35:42;3.60;99.90
10010;DHT22;5044;48.652;9.250;2023-03-03T08:38:10;3.60;99.90
10010;DHT22;5044;48.652;9.250;2023-03-03T08:40:39;3.80;99.90
10010;DHT22;5044;48.652;9.250;2023-03-03T08:43:06;3.80;99.90
10010;DHT22;5044;48.652;9.250;2023-03-03T08:45:33;3.90;99.90
10010;DHT22;5044;48.652;9.250;2023-03-03T08:48:01;4.00;99.90
10010;DHT22;5044;48.652;9.250;2023-03-03T08:50:28;4.10;99.90
10010;DHT22;5044;48.652;9.250;2023-03-03T08:52:56;4.00;99.90
10010;DHT22;5044;48.652;9.250;2023-03-03T08:55:23;4.00;99.90
10010;DHT22;5044;48.652;9.250;2023-03-03T08:57:52;3.90;99.10
10010;DHT22;5044;48.652;9.250;2023-03-03T09:00:19;4.10;99.50
10010;DHT22;5044;48.652;9.250;2023-03-03T09:02:47;4.30;97.50
10010;DHT22;5044;48.652;9.250;2023-03-03T09:05:15;4.00;96.40
10010;DHT22;5044;48.652;9.250;2023-03-03T09:07:43;4.90;97.60
10010;DHT22;5044;48.652;9.250;2023-03-03T09:10:12;5.00;95.60
10010;DHT22;5044;48.652;9.250;2023-03-03T09:12:41;5.20;94.70
10010;DHT22;5044;48.652;9.250;2023-03-03T09:15:20;5.20;94.60
10010;DHT22;5044;48.652;9.250;2023-03-03T09:17:49;4.90;93.40
10010;DHT22;5044;48.652;9.250;2023-03-03T09:20:24;4.90;94.10
10010;DHT22;5044;48.652;9.250;2023-03-03T09:22:53;5.50;94.80
10010;DHT22;5044;48.652;9.250;2023-03-03T09:25:26;5.10;92.50
10010;DHT22;5044;48.652;9.250;2023-03-03T09:27:56;5.10;92.70
10010;DHT22;5044;48.652;9.250;2023-03-03T09:30:35;4.90;92.50
10010;DHT22;5044;48.652;9.250;2023-03-03T09:33:21;5.00;93.70
10010;DHT22;5044;48.652;9.250;2023-03-03T09:35:50;5.50;93.30
10010;DHT22;5044;48.652;9.250;2023-03-03T09:38:28;6.00;94.50
10010;DHT22;5044;48.652;9.250;2023-03-03T09:41:15;5.60;92.50
10010;DHT22;5044;48.652;9.250;2023-03-03T09:47:09;5.60;90.30
10010;DHT22;5044;48.652;9.250;2023-03-03T09:49:43;5.70;91.30
10010;DHT22;5044;48.652;9.250;2023-03-03T09:52:30;6.10;93.30
10010;DHT22;5044;48.652;9.250;2023-03-03T09:55:12;6.30;91.30
10010;DHT22;5044;48.652;9.250;2023-03-03T09:58:08;6.50;89.80
10010;DHT22;5044;48.652;9.250;2023-03-03T10:00:44;6.20;90.70
10010;DHT22;5044;48.652;9.250;2023-03-03T10:03:38;6.60;89.60
10010;DHT22;5044;48.652;9.250;2023-03-03T10:06:18;6.80;89.70
10010;DHT22;5044;48.652;9.250;2023-03-03T10:09:01;7.00;92.00
10010;DHT22;5044;48.652;9.250;2023-03-03T10:11:34;7.50;88.40
10010;DHT22;5044;48.652;9.250;2023-03-03T10:14:25;7.20;86.70
10010;DHT22;5044;48.652;9.250;2023-03-03T10:17:05;7.40;83.10
10010;DHT22;5044;48.652;9.250;2023-03-03T10:19:40;6.90;79.30
10010;DHT22;5044;48.652;9.250;2023-03-03T10:22:18;7.20;85.60
10010;DHT22;5044;48.652;9.250;2023-03-03T10:25:01;7.60;83.80
10010;DHT22;5044;48.652;9.250;2023-03-03T10:27:46;7.10;82.20
10010;DHT22;5044;48.652;9.250;2023-03-03T10:30:20;7.30;85.70
10010;DHT22;5044;48.652;9.250;2023-03-03T10:32:55;6.90;80.60
10010;DHT22;5044;48.652;9.250;2023-03-03T10:35:59;7.20;84.40
10010;DHT22;5044;48.652;9.250;2023-03-03T10:38:49;7.40;80.80
10010;DHT22;5044;48.652;9.250;2023-03-03T10:41:47;7.70;87.70
10010;DHT22;5044;48.652;9.250;2023-03-03T10:47:38;7.80;80.90
10010;DHT22;5044;48.652;9.250;2023-03-03T10:50:15;8.10;81.60
10010;DHT22;5044;48.652;9.250;2023-03-03T10:52:47;8.70;84.70
10010;DHT22;5044;48.652;9.250;2023-03-03T10:55:29;9.00;80.40
10010;DHT22;5044;48.652;9.250;2023-03-03T10:58:21;9.10;76.10
10010;DHT22;5044;48.652;9.250;2023-03-03T11:00:58;9.20;72.10
10010;DHT22;5044;48.652;9.250;2023-03-03T11:03:48;8.90;79.00
10010;DHT22;5044;48.652;9.250;2023-03-03T11:06:24;9.10;74.10
10010;DHT22;5044;48.652;9.250;2023-03-03T11:09:14;9.60;75.00
10010;DHT22;5044;48.652;9.250;2023-03-03T11:11:46;9.60;68.00
10010;DHT22;5044;48.652;9.250;2023-03-03T11:14:25;9.30;67.00
10010;DHT22;5044;48.652;9.250;2023-03-03T11:16:59;8.60;67.80
10010;DHT22;5044;48.652;9.250;2023-03-03T11:19:39;8.60;68.10
10010;DHT22;5044;48.652;9.250;2023-03-03T11:22:24;9.20;85.80
10010;DHT22;5044;48.652;9.250;2023-03-03T11:25:10;9.70;69.60
10010;DHT22;5044;48.652;9.250;2023-03-03T11:27:56;9.20;66.80
10010;DHT22;5044;48.652;9.250;2023-03-03T11:30:35;9.40;72.20
10010;DHT22;5044;48.652;9.250;2023-03-03T11:33:06;9.20;64.50
10010;DHT22;5044;48.652;9.250;2023-03-03T11:35:42;9.10;67.00
10010;DHT22;5044;48.652;9.250;2023-03-03T11:38:27;9.10;69.60
10010;DHT22;5044;48.652;9.250;2023-03-03T11:41:02;9.70;71.60
10010;DHT22;5044;48.652;9.250;2023-03-03T11:43:35;9.80;66.90
10010;DHT22;5044;48.652;9.250;2023-03-03T11:46:05;9.60;72.90
10010;DHT22;5044;48.652;9.250;2023-03-03T11:48:38;10.20;67.20
10010;DHT22;5044;48.652;9.250;2023-03-03T11:51:12;9.80;62.70
10010;DHT22;5044;48.652;9.250;2023-03-03T11:53:53;10.00;63.80
10010;DHT22;5044;48.652;9.250;2023-03-03T11:56:27;9.90;63.60
10010;DHT22;5044;48.652;9.250;2023-03-03T11:59:13;9.80;63.70
10010;DHT22;5044;48.652;9.250;2023-03-03T12:01:47;9.60;63.20
10010;DHT22;5044;48.652;9.250;2023-03-03T12:04:19;9.30;63.30
10010;DHT22;5044;48.652;9.250;2023-03-03T12:06:57;9.60;64.20
10010;DHT22;5044;48.652;9.250;2023-03-03T12:09:36;9.60;61.50
10010;DHT22;5044;48.652;9.250;2023-03-03T12:12:11;9.30;62.50
10010;DHT22;5044;48.652;9.250;2023-03-03T12:14:52;9.20;62.70
10010;DHT22;5044;48.652;9.250;2023-03-03T12:17:37;9.50;66.70
10010;DHT22;5044;48.652;9.250;2023-03-03T12:20:14;9.70;62.50
10010;DHT22;5044;48.652;9.250;2023-03-03T12:22:52;10.00;63.90
10010;DHT22;5044;48.652;9.250;2023-03-03T12:25:31;10.10;62.60
10010;DHT22;5044;48.652;9.250;2023-03-03T12:28:04;9.50;60.90
10010;DHT22;5044;48.652;9.250;2023-03-03T12:33:35;10.70;61.50
10010;DHT22;5044;48.652;9.250;2023-03-03T12:36:13;10.40;60.40
10010;DHT22;5044;48.652;9.250;2023-03-03T12:38:49;10.40;61.00
10010;DHT22;5044;48.652;9.250;2023-03-03T12:41:24;9.60;60.30
10010;DHT22;5044;48.652;9.250;2023-03-03T12:43:58;10.50;75.60
10010;DHT22;5044;48.652;9.250;2023-03-03T12:46:38;11.60;68.60
10010;DHT22;5044;48.652;9.250;2023-03-03T12:49:08;12.30;69.20
10010;DHT22;5044;48.652;9.250;2023-03-03T12:51:47;11.80;60.70
10010;DHT22;5044;48.652;9.250;2023-03-03T12:54:39;12.20;60.60
10010;DHT22;5044;48.652;9.250;2023-03-03T12:57:15;11.70;60.50
10010;DHT22;5044;48.652;9.250;2023-03-03T12:59:54;11.80;59.10
10010;DHT22;5044;48.652;9.250;2023-03-03T13:02:37;11.60;57.60
10010;DHT22;5044;48.652;9.250;2023-03-03T13:05:15;11.40;58.70
10010;DHT22;5044;48.652;9.250;2023-03-03T13:07:49;12.10;71.80
10010;DHT22;5044;48.652;9.250;2023-03-03T13:10:19;12.40;61.40
10010;DHT22;5044;48.652;9.250;2023-03-03T13:12:53;12.50;60.40
10010;DHT22;5044;48.652;9.250;2023-03-03T13:15:26;11.10;55.10
10010;DHT22;5044;48.652;9.250;2023-03-03T13:18:11;11.20;58.20
10010;DHT22;5044;48.652;9.250;2023-03-03T13:20:47;11.50;58.90
10010;DHT22;5044;48.652;9.250;2023-03-03T13:23:26;11.50;57.70
10010;DHT22;5044;48.652;9.250;2023-03-03T13:26:00;11.10;56.20
10010;DHT22;5044;48.652;9.250;2023-03-03T13:28:32;10.90;57.10
10010;DHT22;5044;48.652;9.250;2023-03-03T13:31:08;10.20;56.80
10010;DHT22;5044;48.652;9.250;2023-03-03T13:33:39;10.60;59.50
10010;DHT22;5044;48.652;9.250;2023-03-03T13:36:14;10.90;58.90
10010;DHT22;5044;48.652;9.250;2023-03-03T13:38:46;10.50;57.40
10010;DHT22;5044;48.652;9.250;2023-03-03T13:41:15;11.30;65.10
10010;DHT22;5044;48.652;9.250;2023-03-03T13:43:46;11.70;61.70
10010;DHT22;5044;48.652;9.250;2023-03-03T13:46:23;11.50;57.40
10010;DHT22;5044;48.652;9.250;2023-03-03T13:49:20;11.30;57.30
10010;DHT22;5044;48.652;9.250;2023-03-03T13:51:57;11.80;59.60
10010;DHT22;5044;48.652;9.250;2023-03-03T13:54:38;12.20;59.20
10010;DHT22;5044;48.652;9.250;2023-03-03T13:57:20;12.10;58.30
10010;DHT22;5044;48.652;9.250;2023-03-03T13:59:55;11.50;55.30
10010;DHT22;5044;48.652;9.250;2023-03-03T14:02:46;11.10;57.30
10010;DHT22;5044;48.652;9.250;2023-03-03T14:05:19;10.80;56.50
10010;DHT22;5044;48.652;9.250;2023-03-03T14:07:56;10.80;57.30
10010;DHT22;5044;48.652;9.250;2023-03-03T14:10:28;11.40;57.80
10010;DHT22;5044;48.652;9.250;2023-03-03T14:13:02;11.70;63.20
10010;DHT22;5044;48.652;9.250;2023-03-03T14:15:32;11.80;56.40
10010;DHT22;5044;48.652;9.250;2023-03-03T14:18:16;11.70;56.10
10010;DHT22;5044;48.652;9.250;2023-03-03T14:20:49;11.30;55.10
10010;DHT22;5044;48.652;9.250;2023-03-03T14:23:20;11.10;54.90
10010;DHT22;5044;48.652;9.250;2023-03-03T14:25:57;10.70;54.60
10010;DHT22;5044;48.652;9.250;2023-03-03T14:28:26;10.70;55.10
10010;DHT22;5044;48.652;9.250;2023-03-03T14:30:55;11.10;55.80
10010;DHT22;5044;48.652;9.250;2023-03-03T14:33:29;11.10;55.90
10010;DHT22;5044;48.652;9.250;2023-03-03T14:36:04;11.10;56.00
10010;DHT22;5044;48.652;9.250;2023-03-03T14:38:40;11.10;55.50
10010;DHT22;5044;48.652;9.250;2023-03-03T14:41:21;10.70;54.70
10010;DHT22;5044;48.652;9.250;2023-03-03T14:43:59;11.30;57.90
10010;DHT22;5044;48.652;9.250;2023-03-03T14:46:35;11.70;58.50
10010;DHT22;5044;48.652;9.250;2023-03-03T14:49:05;11.80;56.50
10010;DHT22;5044;48.652;9.250;2023-03-03T14:51:40;11.00;54.50
10010;DHT22;5044;48.652;9.250;2023-03-03T14:54:20;11.40;56.30
10010;DHT22;5044;48.652;9.250;2023-03-03T14:57:00;11.40;56.80
10010;DHT22;5044;48.652;9.250;2023-03-03T14:59:29;11.60;55.80
10010;DHT22;5044;48.652;9.250;2023-03-03T15:02:36;11.10;54.80
10010;DHT22;5044;48.652;9.250;2023-03-03T15:05:17;10.50;55.60
10010;DHT22;5044;48.652;9.250;2023-03-03T15:07:46;10.90;57.70
10010;DHT22;5044;48.652;9.250;2023-03-03T15:10:26;11.00;56.40
10010;DHT22;5044;48.652;9.250;2023-03-03T15:12:54;10.50;55.60
10010;DHT22;5044;48.652;9.250;2023-03-03T15:15:23;10.40;55.80
10010;DHT22;5044;48.652;9.250;2023-03-03T15:17:57;10.60;57.60
10010;DHT22;5044;48.652;9.250;2023-03-03T15:20:36;10.40;56.00
10010;DHT22;5044;48.652;9.250;2023-03-03T15:23:37;10.50;60.40
10010;DHT22;5044;48.652;9.250;2023-03-03T15:26:09;10.70;59.30
10010;DHT22;5044;48.652;9.250;2023-03-03T15:28:48;10.60;58.80
10010;DHT22;5044;48.652;9.250;2023-03-03T15:31:27;10.10;56.50
10010;DHT22;5044;48.652;9.250;2023-03-03T15:34:02;10.20;58.90
10010;DHT22;5044;48.652;9.250;2023-03-03T15:36:38;10.30;57.50
10010;DHT22;5044;48.652;9.250;2023-03-03T15:39:17;10.20;58.00
10010;DHT22;5044;48.652;9.250;2023-03-03T15:41:54;9.70;60.30
10010;DHT22;5044;48.652;9.250;2023-03-03T15:44:30;9.60;58.80
10010;DHT22;5044;48.652;9.250;2023-03-03T15:47:13;9.70;60.60
10010;DHT22;5044;48.652;9.250;2023-03-03T15:49:54;9.70;59.60
10010;DHT22;5044;48.652;9.250;2023-03-03T15:52:38;9.60;59.20
10010;DHT22;5044;48.652;9.250;2023-03-03T15:55:21;9.40;61.10
10010;DHT22;5044;48.652;9.250;2023-03-03T15:58:03;9.50;66.30
10010;DHT22;5044;48.652;9.250;2023-03-03T16:00:37;9.40;62.50
10010;DHT22;5044;48.652;9.250;2023-03-03T16:03:12;9.30;65.00
10010;DHT22;5044;48.652;9.250;2023-03-03T16:05:48;9.20;64.40
10010;DHT22;5044;48.652;9.250;2023-03-03T16:08:22;9.10;66.20
10010;DHT22;5044;48.652;9.250;2023-03-03T16:11:01;9.20;67.30
10010;DHT22;5044;48.652;9.250;2023-03-03T16:13:45;9.10;65.90
10010;DHT22;5044;48.652;9.250;2023-03-03T16:16:21;9.10;65.80
10010;DHT22;5044;48.652;9.250;2023-03-03T16:19:05;9.10;68.60
10010;DHT22;5044;48.652;9.250;2023-03-03T16:22:08;9.00;67.20
10010;DHT22;5044;48.652;9.250;2023-03-03T16:24:46;8.90;70.40
10010;DHT22;5044;48.652;9.250;2023-03-03T16:27:19;8.90;71.80
10010;DHT22;5044;48.652;9.250;2023-03-03T16:30:00;8.90;74.60
10010;DHT22;5044;48.652;9.250;2023-03-03T16:32:36;8.80;72.40
10010;DHT22;5044;48.652;9.250;2023-03-03T16:35:24;8.80;76.50
10010;DHT22;5044;48.652;9.250;2023-03-03T16:37:57;8.60;73.20
10010;DHT22;5044;48.652;9.250;2023-03-03T16:40:29;8.40;73.20
10010;DHT22;5044;48.652;9.250;2023-03-03T16:43:03;8.20;74.20
10010;DHT22;5044;48.652;9.250;2023-03-03T16:45:34;8.00;74.50
10010;DHT22;5044;48.652;9.250;2023-03-03T16:48:12;8.00;75.40
10010;DHT22;5044;48.652;9.250;2023-03-03T16:50:47;7.90;76.50
10010;DHT22;5044;48.652;9.250;2023-03-03T16:53:22;7.80;76.00
10010;DHT22;5044;48.652;9.250;2023-03-03T16:56:00;7.60;75.50
10010;DHT22;5044;48.652;9.250;2023-03-03T16:58:41;7.60;76.20
10010;DHT22;5044;48.652;9.250;2023-03-03T17:01:15;7.40;78.00
10010;DHT22;5044;48.652;9.250;2023-03-03T17:03:59;7.30;79.10